createdAt,value
2022-12-29T00:01:44.725Z,-2.22
2022-12-29T00:04:15.788Z,-1.93
2022-12-29T00:06:44.394Z,-1.99
2022-12-29T00:09:13.948Z,-2.02
2022-12-29T00:11:45.063Z,-2.09
2022-12-29T00:14:32.666Z,-1.96
2022-12-29T00:17:00.541Z,-1.97
2022-12-29T00:19:50.332Z,-1.95
2022-12-29T00:22:36.607Z,-1.90
2022-12-29T00:25:25.636Z,-1.79
2022-12-29T00:28:12.181Z,-1.83
2022-12-29T00:31:03.005Z,-1.90
2022-12-29T00:33:51.968Z,-1.92
2022-12-29T00:36:42.125Z,-1.95
2022-12-29T00:39:36.131Z,-1.97
2022-12-29T00:42:28.289Z,-2.03
2022-12-29T00:44:56.233Z,-1.76
2022-12-29T00:47:27.671Z,-1.84
2022-12-29T00:49:55.510Z,-2.01
2022-12-29T00:52:23.522Z,-1.88
2022-12-29T00:54:51.769Z,-1.82
2022-12-29T00:57:19.925Z,-1.85
2022-12-29T00:59:47.792Z,-1.81
2022-12-29T01:02:17.072Z,-1.84
2022-12-29T01:04:48.072Z,-1.67
2022-12-29T01:07:17.252Z,-1.79
2022-12-29T01:10:04.717Z,-1.76
2022-12-29T01:12:46.272Z,-1.58
2022-12-29T01:15:16.195Z,-1.57
2022-12-29T01:17:44.555Z,-1.60
2022-12-29T01:20:15.588Z,-1.58
2022-12-29T01:22:45.005Z,-1.41
2022-12-29T01:25:13.878Z,-1.53
2022-12-29T01:27:42.005Z,-1.53
2022-12-29T01:30:10.377Z,-1.52
2022-12-29T01:32:38.650Z,-1.59
2022-12-29T01:35:06.846Z,-1.69
2022-12-29T01:37:36.208Z,-1.86
2022-12-29T01:40:07.764Z,-1.92
2022-12-29T01:42:35.705Z,-1.77
2022-12-29T01:45:23.770Z,-2.06
2022-12-29T01:47:58.524Z,-2.28
2022-12-29T01:50:41.323Z,-2.35
2022-12-29T01:53:18.536Z,-2.39
2022-12-29T01:55:53.404Z,-2.55
2022-12-29T01:58:25.551Z,-2.46
2022-12-29T02:00:53.552Z,-2.56
2022-12-29T02:03:24.468Z,-2.74
2022-12-29T02:06:03.900Z,-2.49
2022-12-29T02:08:32.247Z,-2.55
2022-12-29T02:11:04.534Z,-2.52
2022-12-29T02:13:35.614Z,-2.46
2022-12-29T02:16:15.620Z,-2.58
2022-12-29T02:19:00.341Z,-2.53
2022-12-29T02:21:46.831Z,-2.67
2022-12-29T02:24:46.521Z,-2.85
2022-12-29T02:27:24.190Z,-2.84
2022-12-29T02:30:33.750Z,-3.01
2022-12-29T02:33:04.761Z,-3.09
2022-12-29T02:35:50.440Z,-3.07
2022-12-29T02:38:37.328Z,-3.08
2022-12-29T02:41:06.019Z,-2.82
2022-12-29T02:43:45.576Z,-2.61
2022-12-29T02:46:35.491Z,-2.75
2022-12-29T02:49:27.581Z,-2.68
2022-12-29T02:52:04.916Z,-2.53
2022-12-29T02:54:42.202Z,-2.58
2022-12-29T02:57:21.715Z,-2.78
2022-12-29T03:00:12.454Z,-2.67
2022-12-29T03:03:08.218Z,-2.80
2022-12-29T03:05:46.331Z,-2.80
2022-12-29T03:08:57.447Z,-2.92
2022-12-29T03:11:52.569Z,-2.99
2022-12-29T03:15:30.229Z,-2.92
2022-12-29T03:18:07.827Z,-2.60
2022-12-29T03:20:48.380Z,-2.79
2022-12-29T03:23:18.017Z,-2.79
2022-12-29T03:25:52.311Z,-2.84
2022-12-29T03:28:29.084Z,-2.85
2022-12-29T03:31:01.234Z,-2.71
2022-12-29T03:33:34.015Z,-2.79
2022-12-29T03:36:08.146Z,-2.88
2022-12-29T03:39:03.417Z,-2.96
2022-12-29T03:41:35.902Z,-2.93
2022-12-29T03:44:06.671Z,-2.94
2022-12-29T03:46:35.302Z,-2.91
2022-12-29T03:49:03.919Z,-3.11
2022-12-29T03:51:31.875Z,-3.25
2022-12-29T03:54:00.144Z,-3.20
2022-12-29T03:56:28.410Z,-3.50
2022-12-29T03:58:56.254Z,-3.46
2022-12-29T04:01:25.536Z,-3.34
2022-12-29T04:03:56.958Z,-3.83
2022-12-29T04:06:25.015Z,-3.92
2022-12-29T04:08:54.213Z,-3.85
2022-12-29T04:11:25.180Z,-3.59
2022-12-29T04:13:58.392Z,-3.78
2022-12-29T04:16:26.654Z,-4.09
2022-12-29T04:18:54.621Z,-4.05
2022-12-29T04:21:24.097Z,-4.02
2022-12-29T04:23:52.155Z,-4.16
2022-12-29T04:26:20.166Z,-4.02
2022-12-29T04:28:52.471Z,-3.93
2022-12-29T04:31:22.911Z,-3.61
2022-12-29T04:33:51.387Z,-3.29
2022-12-29T04:36:19.261Z,-3.56
2022-12-29T04:38:50.044Z,-3.49
2022-12-29T04:41:18.085Z,-3.47
2022-12-29T04:43:46.203Z,-3.43
2022-12-29T04:46:14.899Z,-3.66
2022-12-29T04:48:43.680Z,-3.48
2022-12-29T04:51:11.743Z,-3.27
2022-12-29T04:53:40.172Z,-3.40
2022-12-29T04:56:10.433Z,-3.46
2022-12-29T04:58:41.189Z,-3.07
2022-12-29T05:01:09.457Z,-3.70
2022-12-29T05:03:37.381Z,-3.34
2022-12-29T05:06:05.900Z,-3.57
2022-12-29T05:08:33.983Z,-3.66
2022-12-29T05:11:02.011Z,-3.51
2022-12-29T05:13:29.889Z,-3.31
2022-12-29T05:15:58.467Z,-3.90
2022-12-29T05:18:26.361Z,-3.68
2022-12-29T05:20:55.061Z,-3.94
2022-12-29T05:23:24.542Z,-3.76
2022-12-29T05:25:52.857Z,-3.46
2022-12-29T05:28:20.931Z,-3.68
2022-12-29T05:30:51.440Z,-3.16
2022-12-29T05:33:20.460Z,-3.70
2022-12-29T05:35:51.444Z,-3.75
2022-12-29T05:38:19.936Z,-3.58
2022-12-29T05:40:47.764Z,-3.69
2022-12-29T05:43:16.330Z,-3.67
2022-12-29T05:45:45.252Z,-3.30
2022-12-29T05:48:13.142Z,-3.50
2022-12-29T05:50:41.083Z,-3.49
2022-12-29T05:53:13.133Z,-3.16
2022-12-29T05:55:46.616Z,-3.24
2022-12-29T05:58:18.565Z,-3.48
2022-12-29T06:00:46.810Z,-3.35
2022-12-29T06:03:15.453Z,-3.14
2022-12-29T06:05:47.488Z,-3.13
2022-12-29T06:08:16.548Z,-3.26
2022-12-29T06:10:47.118Z,-3.11
2022-12-29T06:13:15.239Z,-2.90
2022-12-29T06:15:44.429Z,-3.06
2022-12-29T06:18:19.541Z,-2.92
2022-12-29T06:20:49.054Z,-2.79
2022-12-29T06:23:19.730Z,-2.95
2022-12-29T06:25:50.638Z,-2.78
2022-12-29T06:28:18.749Z,-2.91
2022-12-29T06:30:47.170Z,-3.01
2022-12-29T06:33:15.854Z,-3.06
2022-12-29T06:35:47.128Z,-2.76
2022-12-29T06:38:15.995Z,-2.72
2022-12-29T06:40:46.332Z,-2.80
2022-12-29T06:43:17.709Z,-2.92
2022-12-29T06:45:45.797Z,-2.97
2022-12-29T06:48:13.790Z,-2.81
2022-12-29T06:50:42.382Z,-2.85
2022-12-29T06:53:10.127Z,-2.68
2022-12-29T06:55:38.509Z,-2.78
2022-12-29T06:58:06.945Z,-2.77
2022-12-29T07:00:34.799Z,-2.85
2022-12-29T07:03:02.908Z,-2.85
2022-12-29T07:05:33.917Z,-2.96
2022-12-29T07:08:01.935Z,-2.76
2022-12-29T07:10:29.812Z,-2.84
2022-12-29T07:12:58.105Z,-3.06
2022-12-29T07:15:26.024Z,-2.92
2022-12-29T07:17:53.825Z,-3.15
2022-12-29T07:20:26.759Z,-3.06
2022-12-29T07:22:55.776Z,-2.93
2022-12-29T07:25:26.944Z,-2.92
2022-12-29T07:27:55.341Z,-2.77
2022-12-29T07:30:23.262Z,-2.58
2022-12-29T07:32:51.530Z,-2.64
2022-12-29T07:35:19.374Z,-2.55
2022-12-29T07:37:47.528Z,-2.46
2022-12-29T07:40:15.850Z,-2.30
2022-12-29T07:42:43.748Z,-2.40
2022-12-29T07:45:16.402Z,-2.42
2022-12-29T07:47:50.558Z,-2.38
2022-12-29T07:50:18.877Z,-2.34
2022-12-29T07:52:48.287Z,-2.21
2022-12-29T07:55:18.518Z,-2.42
2022-12-29T07:57:46.449Z,-2.36
2022-12-29T08:00:15.367Z,-2.09
2022-12-29T08:02:43.663Z,-1.95
2022-12-29T08:05:11.672Z,-2.22
2022-12-29T08:07:39.597Z,-2.08
2022-12-29T08:10:08.331Z,-1.85
2022-12-29T08:12:36.085Z,-2.02
2022-12-29T08:15:04.509Z,-1.99
2022-12-29T08:17:32.669Z,-2.08
2022-12-29T08:20:00.545Z,-1.95
2022-12-29T08:22:31.188Z,-2.19
2022-12-29T08:24:59.455Z,-2.19
2022-12-29T08:27:27.563Z,-2.05
2022-12-29T08:29:55.507Z,-2.30
2022-12-29T08:32:23.860Z,-1.76
2022-12-29T08:34:52.043Z,-1.67
2022-12-29T08:37:19.835Z,-1.90
2022-12-29T08:39:47.983Z,-1.62
2022-12-29T08:42:15.845Z,-1.74
2022-12-29T08:44:43.851Z,-1.63
2022-12-29T08:47:13.015Z,-1.68
2022-12-29T08:49:43.983Z,-1.40
2022-12-29T08:52:12.213Z,-1.50
2022-12-29T08:54:40.465Z,-1.40
2022-12-29T08:57:08.600Z,-1.28
2022-12-29T08:59:37.236Z,-1.59
2022-12-29T09:02:05.220Z,-1.53
2022-12-29T09:04:33.401Z,-1.41
2022-12-29T09:07:01.593Z,-1.22
2022-12-29T09:09:29.308Z,-1.00
2022-12-29T09:11:57.107Z,-1.18
2022-12-29T09:14:25.410Z,-1.10
2022-12-29T09:17:11.834Z,-0.98
2022-12-29T09:19:40.139Z,-1.18
2022-12-29T09:22:07.905Z,-1.09
2022-12-29T09:24:35.622Z,-0.87
2022-12-29T09:27:03.722Z,-1.00
2022-12-29T09:29:31.431Z,-1.32
2022-12-29T09:31:59.141Z,-1.25
2022-12-29T09:34:27.498Z,-1.02
2022-12-29T09:36:57.467Z,-0.95
2022-12-29T09:39:25.328Z,-0.96
2022-12-29T09:42:26.174Z,-0.83
2022-12-29T09:45:29.560Z,-0.71
2022-12-29T09:47:57.656Z,-0.57
2022-12-29T09:50:31.477Z,-0.43
2022-12-29T09:53:09.210Z,-0.33
2022-12-29T09:56:00.112Z,-0.31
2022-12-29T09:58:42.034Z,-0.15
2022-12-29T10:01:30.294Z,-0.23
2022-12-29T10:04:06.630Z,-0.37
2022-12-29T10:07:27.971Z,-0.24
2022-12-29T10:09:53.158Z,-0.11
2022-12-29T10:12:47.035Z,-0.10
2022-12-29T10:15:35.360Z,-0.13
2022-12-29T10:18:21.471Z,0.01
2022-12-29T10:21:06.303Z,-0.01
2022-12-29T10:23:40.599Z,-0.04
2022-12-29T10:26:19.186Z,0.06
2022-12-29T10:28:54.098Z,0.11
2022-12-29T10:31:36.154Z,0.23
2022-12-29T10:34:16.499Z,0.30
2022-12-29T10:36:50.071Z,0.26
2022-12-29T10:39:49.579Z,0.30
2022-12-29T10:42:41.871Z,0.09
2022-12-29T10:45:16.870Z,-0.10
2022-12-29T10:48:13.401Z,-0.14
2022-12-29T10:50:44.294Z,-0.20
2022-12-29T10:53:21.862Z,-0.21
2022-12-29T10:55:51.734Z,-0.25
2022-12-29T10:58:21.118Z,-0.38
2022-12-29T11:00:54.989Z,-0.54
2022-12-29T11:03:36.523Z,-0.62
2022-12-29T11:06:12.646Z,-1.02
2022-12-29T11:08:49.714Z,-1.34
2022-12-29T11:11:27.925Z,-1.65
2022-12-29T11:14:12.739Z,-1.77
2022-12-29T11:16:42.932Z,-1.67
2022-12-29T11:19:23.443Z,-1.78
2022-12-29T11:21:51.839Z,-1.81
2022-12-29T11:24:24.364Z,-1.81
2022-12-29T11:26:58.919Z,-1.73
2022-12-29T11:29:39.329Z,-1.69
2022-12-29T11:32:29.542Z,-1.68
2022-12-29T11:35:00.078Z,-1.69
2022-12-29T11:37:40.953Z,-1.73
2022-12-29T11:40:20.522Z,-1.66
2022-12-29T11:42:57.219Z,-1.66
2022-12-29T11:45:35.468Z,-1.63
2022-12-29T11:48:10.937Z,-1.61
2022-12-29T11:50:41.815Z,-1.65
2022-12-29T11:53:37.246Z,-1.71
2022-12-29T11:56:18.896Z,-1.77
2022-12-29T11:58:51.153Z,-1.84
2022-12-29T12:01:37.792Z,-1.74
2022-12-29T12:04:21.399Z,-1.86
2022-12-29T12:07:36.677Z,-1.95
2022-12-29T12:10:08.044Z,-1.85
2022-12-29T12:12:43.357Z,-1.87
2022-12-29T12:15:23.484Z,-1.89
2022-12-29T12:18:03.641Z,-2.01
2022-12-29T12:20:45.945Z,-2.05
2022-12-29T12:23:43.519Z,-2.10
2022-12-29T12:26:20.072Z,-2.27
2022-12-29T12:28:57.340Z,-2.38
2022-12-29T12:32:07.171Z,-2.46
2022-12-29T12:34:40.845Z,-2.66
2022-12-29T12:37:34.906Z,-2.67
2022-12-29T12:40:27.988Z,-2.69
2022-12-29T12:43:11.815Z,-2.69
2022-12-29T12:48:30.228Z,-2.52
2022-12-29T12:51:16.176Z,-2.53
2022-12-29T12:54:14.075Z,-2.55
2022-12-29T12:57:14.546Z,-2.56
2022-12-29T13:00:01.938Z,-2.48
2022-12-29T13:02:40.294Z,-2.30
2022-12-29T13:05:36.417Z,-2.04
2022-12-29T13:08:19.231Z,-2.25
2022-12-29T13:11:10.076Z,-0.99
2022-12-29T13:13:48.887Z,-1.24
2022-12-29T13:16:33.769Z,-1.96
2022-12-29T13:19:12.883Z,-1.64
2022-12-29T13:21:46.447Z,-1.06
2022-12-29T13:27:15.028Z,-0.43
2022-12-29T13:30:01.121Z,-1.84
2022-12-29T13:32:43.982Z,-1.80
2022-12-29T13:35:28.583Z,-0.49
2022-12-29T13:38:04.922Z,-1.63
2022-12-29T13:40:40.406Z,-1.72
2022-12-29T13:43:09.739Z,-1.97
2022-12-29T13:45:38.383Z,-2.18
2022-12-29T13:48:18.893Z,-2.27
2022-12-29T13:50:53.477Z,-2.12
2022-12-29T13:53:35.714Z,-1.71
2022-12-29T13:56:22.253Z,-1.76
2022-12-29T13:58:59.064Z,-2.01
2022-12-29T14:01:33.781Z,-1.87
2022-12-29T14:04:09.767Z,-2.10
2022-12-29T14:06:44.283Z,-2.13
2022-12-29T14:09:37.275Z,-1.46
2022-12-29T14:12:32.498Z,-1.19
2022-12-29T14:15:12.615Z,-1.48
2022-12-29T14:17:45.299Z,-1.89
2022-12-29T14:20:24.362Z,-2.07
2022-12-29T14:23:01.244Z,-2.06
2022-12-29T14:26:01.517Z,-2.13
2022-12-29T14:28:31.758Z,-2.21
2022-12-29T14:31:02.632Z,-2.01
2022-12-29T14:33:35.885Z,-1.98
2022-12-29T14:36:26.763Z,-1.99
2022-12-29T14:38:54.696Z,-1.72
2022-12-29T14:41:31.876Z,-1.69
2022-12-29T14:44:16.480Z,-1.91
2022-12-29T14:46:47.217Z,-1.67
2022-12-29T14:49:24.630Z,-1.73
2022-12-29T14:51:55.303Z,-1.79
2022-12-29T14:54:38.280Z,-1.32
2022-12-29T14:57:09.620Z,-1.04
2022-12-29T14:59:40.823Z,-0.49
2022-12-29T15:02:20.979Z,-0.71
2022-12-29T15:04:49.866Z,-1.30
2022-12-29T15:07:21.066Z,-1.10
2022-12-29T15:10:14.991Z,-1.35
2022-12-29T15:12:53.165Z,-1.82
2022-12-29T15:15:27.257Z,-1.50
2022-12-29T15:17:55.653Z,-1.70
2022-12-29T15:20:33.288Z,-1.67
2022-12-29T15:23:12.455Z,-1.72
2022-12-29T15:25:55.885Z,-1.47
2022-12-29T15:28:25.197Z,-1.60
2022-12-29T15:30:58.442Z,-1.79
2022-12-29T15:33:29.261Z,-1.88
2022-12-29T15:35:58.892Z,-1.94
2022-12-29T15:38:37.133Z,-1.81
2022-12-29T15:41:25.804Z,-1.65
2022-12-29T15:44:32.234Z,-1.81
2022-12-29T15:47:13.268Z,-1.36
2022-12-29T15:49:44.416Z,-1.40
2022-12-29T15:52:18.415Z,-1.62
2022-12-29T15:54:49.331Z,-1.56
2022-12-29T15:57:24.458Z,-1.61
2022-12-29T15:59:53.434Z,-1.60
2022-12-29T16:02:24.007Z,-1.53
2022-12-29T16:05:16.677Z,-1.20
2022-12-29T16:07:54.348Z,-1.49
2022-12-29T16:10:34.812Z,-1.42
2022-12-29T16:13:24.272Z,-1.81
2022-12-29T16:16:09.338Z,-1.71
2022-12-29T16:18:38.918Z,-1.80
2022-12-29T16:21:19.556Z,-1.86
2022-12-29T16:23:52.032Z,-1.82
2022-12-29T16:26:21.903Z,-1.44
2022-12-29T16:28:53.031Z,-1.09
2022-12-29T16:32:01.945Z,-1.62
2022-12-29T16:34:44.442Z,-1.43
2022-12-29T16:37:32.454Z,-1.33
2022-12-29T16:40:28.876Z,-1.10
2022-12-29T16:43:02.655Z,-1.28
2022-12-29T16:45:45.869Z,-1.40
2022-12-29T16:48:16.939Z,-1.04
2022-12-29T16:50:46.529Z,-0.90
2022-12-29T16:53:29.740Z,-1.43
2022-12-29T16:56:03.037Z,-1.18
2022-12-29T16:58:33.000Z,-0.72
2022-12-29T17:01:04.071Z,-0.50
2022-12-29T17:03:46.041Z,-1.02
2022-12-29T17:06:22.981Z,-0.89
2022-12-29T17:08:52.537Z,-0.97
2022-12-29T17:11:43.552Z,-0.41
2022-12-29T17:14:34.197Z,-0.77
2022-12-29T17:17:02.457Z,-0.89
2022-12-29T17:19:39.061Z,-0.34
2022-12-29T17:22:23.071Z,-0.80
2022-12-29T17:24:51.531Z,-1.34
2022-12-29T17:27:26.063Z,-1.28
2022-12-29T17:29:58.775Z,-1.03
2022-12-29T17:32:26.829Z,-0.55
2022-12-29T17:34:55.234Z,-0.82
2022-12-29T17:37:29.378Z,-1.12
2022-12-29T17:39:57.624Z,-0.21
2022-12-29T17:42:25.927Z,-0.52
2022-12-29T17:44:53.983Z,-0.27
2022-12-29T17:47:22.268Z,-0.52
2022-12-29T17:49:50.245Z,-0.14
2022-12-29T17:52:18.383Z,-0.66
2022-12-29T17:54:50.471Z,-0.67
2022-12-29T17:57:20.109Z,-0.58
2022-12-29T17:59:48.449Z,-0.46
2022-12-29T18:02:32.966Z,-0.39
2022-12-29T18:05:01.434Z,-0.78
2022-12-29T18:07:36.008Z,-0.83
2022-12-29T18:10:04.830Z,-1.34
2022-12-29T18:12:41.983Z,-1.34
2022-12-29T18:15:21.230Z,-1.08
2022-12-29T18:17:50.073Z,-0.70
2022-12-29T18:20:18.315Z,-0.84
2022-12-29T18:22:46.051Z,-1.25
2022-12-29T18:25:52.567Z,-0.43
2022-12-29T18:28:21.123Z,-1.34
2022-12-29T18:30:49.151Z,-1.25
2022-12-29T18:33:23.392Z,-1.34
2022-12-29T18:36:05.515Z,-1.15
2022-12-29T18:38:33.338Z,-1.26
2022-12-29T18:41:04.895Z,-0.84
2022-12-29T18:43:32.800Z,-1.18
2022-12-29T18:46:01.274Z,-0.43
2022-12-29T18:48:29.600Z,-0.30
2022-12-29T18:50:57.418Z,-0.37
2022-12-29T18:53:26.069Z,-0.93
2022-12-29T18:55:54.558Z,-0.50
2022-12-29T18:58:22.466Z,-0.97
2022-12-29T19:00:51.418Z,-0.55
2022-12-29T19:03:19.665Z,-0.77
2022-12-29T19:05:49.359Z,-1.16
2022-12-29T19:08:17.451Z,-1.42
2022-12-29T19:10:46.244Z,-1.37
2022-12-29T19:13:19.777Z,-0.34
2022-12-29T19:15:48.326Z,-0.98
2022-12-29T19:21:12.917Z,-1.02
2022-12-29T19:23:44.342Z,-0.50
2022-12-29T19:26:34.859Z,-0.43
2022-12-29T19:29:03.027Z,-0.38
2022-12-29T19:31:31.298Z,-0.36
2022-12-29T19:33:59.059Z,-0.45
2022-12-29T19:36:26.999Z,-0.34
2022-12-29T19:38:56.202Z,-0.36
2022-12-29T19:41:24.121Z,-0.49
2022-12-29T19:43:52.000Z,-0.25
2022-12-29T19:46:20.892Z,-0.34
2022-12-29T19:48:48.746Z,-0.44
2022-12-29T19:51:17.522Z,-0.89
2022-12-29T19:53:46.647Z,-0.57
2022-12-29T19:56:15.630Z,-1.30
2022-12-29T19:58:47.192Z,-1.33
2022-12-29T20:01:23.161Z,-0.97
2022-12-29T20:03:52.515Z,-0.99
2022-12-29T20:06:20.603Z,-0.51
2022-12-29T20:08:51.751Z,-1.28
2022-12-29T20:11:20.282Z,-0.68
2022-12-29T20:13:48.767Z,-0.56
2022-12-29T20:16:18.986Z,-1.19
2022-12-29T20:18:48.452Z,-1.31
2022-12-29T20:21:21.857Z,-0.62
2022-12-29T20:23:53.118Z,-0.75
2022-12-29T20:26:29.473Z,-0.86
2022-12-29T20:28:58.951Z,-0.51
2022-12-29T20:31:31.719Z,-0.64
2022-12-29T20:34:00.170Z,-0.71
2022-12-29T20:36:31.544Z,-0.92
2022-12-29T20:39:02.036Z,-1.14
2022-12-29T20:41:31.476Z,-0.64
2022-12-29T20:43:59.748Z,-0.72
2022-12-29T20:46:34.060Z,-0.73
2022-12-29T20:49:11.469Z,-0.91
2022-12-29T20:52:05.226Z,-1.13
2022-12-29T20:54:29.934Z,-0.91
2022-12-29T20:57:00.265Z,-0.86
2022-12-29T20:59:29.166Z,-0.94
2022-12-29T21:01:58.630Z,-0.37
2022-12-29T21:04:27.031Z,-0.40
2022-12-29T21:06:55.760Z,-0.97
2022-12-29T21:09:24.107Z,-1.13
2022-12-29T21:11:52.228Z,-0.55
2022-12-29T21:14:20.513Z,-0.85
2022-12-29T21:16:50.770Z,-1.05
2022-12-29T21:19:18.684Z,-0.73
2022-12-29T21:21:46.837Z,-1.26
2022-12-29T21:24:14.662Z,-0.58
2022-12-29T21:26:43.276Z,-0.67
2022-12-29T21:29:11.633Z,-0.41
2022-12-29T21:31:39.485Z,-0.34
2022-12-29T21:34:07.618Z,-0.54
2022-12-29T21:36:36.298Z,-0.54
2022-12-29T21:39:04.898Z,-0.29
2022-12-29T21:41:33.708Z,-0.47
2022-12-29T21:44:20.739Z,-1.03
2022-12-29T21:46:48.483Z,-1.14
2022-12-29T21:49:16.770Z,-0.68
2022-12-29T21:51:50.661Z,-0.85
2022-12-29T21:54:43.744Z,-0.89
2022-12-29T21:57:38.661Z,-0.66
2022-12-29T22:00:28.136Z,-0.42
2022-12-29T22:03:23.064Z,-0.72
2022-12-29T22:06:11.312Z,-0.59
2022-12-29T22:08:59.254Z,-0.77
2022-12-29T22:11:45.839Z,-0.21
2022-12-29T22:14:13.915Z,-0.45
2022-12-29T22:16:41.795Z,-0.54
2022-12-29T22:19:12.357Z,-0.03
2022-12-29T22:21:40.618Z,-0.36
2022-12-29T22:24:09.100Z,-0.49
2022-12-29T22:26:36.938Z,-0.55
2022-12-29T22:29:05.049Z,-0.59
2022-12-29T22:31:33.471Z,-0.33
2022-12-29T22:34:03.581Z,-0.32
2022-12-29T22:36:32.643Z,-0.63
2022-12-29T22:39:01.420Z,-0.25
2022-12-29T22:41:29.337Z,-0.01
2022-12-29T22:43:57.534Z,-0.06
2022-12-29T22:46:25.492Z,-0.73
2022-12-29T22:48:53.506Z,-0.62
2022-12-29T22:51:21.553Z,-0.32
2022-12-29T22:53:50.264Z,-0.55
2022-12-29T22:56:18.610Z,-0.70
2022-12-29T22:58:48.758Z,-1.01
2022-12-29T23:01:22.331Z,-1.25
2022-12-29T23:04:01.071Z,-0.94
2022-12-29T23:06:41.714Z,-0.65
2022-12-29T23:09:18.922Z,-0.55
2022-12-29T23:11:50.135Z,-0.95
2022-12-29T23:14:18.315Z,-1.11
2022-12-29T23:16:46.673Z,-0.50
2022-12-29T23:19:14.589Z,-0.74
2022-12-29T23:21:42.672Z,-0.99
2022-12-29T23:24:14.555Z,-1.24
2022-12-29T23:26:45.626Z,-1.52
2022-12-29T23:29:16.040Z,-0.53
2022-12-29T23:31:44.949Z,-0.54
2022-12-29T23:34:17.487Z,-0.70
2022-12-29T23:36:45.582Z,-1.16
2022-12-29T23:39:23.611Z,-1.39
2022-12-29T23:41:52.823Z,-1.46
2022-12-29T23:44:20.643Z,-1.54
2022-12-29T23:46:48.733Z,-1.14
2022-12-29T23:49:17.087Z,-0.67
2022-12-29T23:51:44.988Z,-1.27
2022-12-29T23:54:12.849Z,-1.28
2022-12-29T23:56:41.066Z,-1.24
2022-12-29T23:59:08.921Z,-1.46
